createdAt,value
2023-05-13T00:02:20.113Z,101069.91
2023-05-13T00:04:47.225Z,101070.09
2023-05-13T00:07:14.299Z,101071.47
2023-05-13T00:09:41.509Z,101075.66
2023-05-13T00:12:08.765Z,101071.22
2023-05-13T00:14:35.755Z,101072.97
2023-05-13T00:17:04.860Z,101064.88
2023-05-13T00:19:32.082Z,101066.81
2023-05-13T00:21:59.233Z,101067.00
2023-05-13T00:24:26.257Z,101071.41
2023-05-13T00:26:53.659Z,101062.78
2023-05-13T00:29:20.847Z,101064.88
2023-05-13T00:31:47.971Z,101062.56
2023-05-13T00:34:15.193Z,101064.41
2023-05-13T00:36:42.247Z,101064.75
2023-05-13T00:39:09.250Z,101067.91
2023-05-13T00:41:36.401Z,101070.06
2023-05-13T00:44:03.583Z,101068.72
2023-05-13T00:46:34.315Z,101064.88
2023-05-13T00:49:02.270Z,101075.31
2023-05-13T00:51:29.341Z,101082.63
2023-05-13T00:53:59.263Z,101076.09
2023-05-13T00:56:27.211Z,101066.00
2023-05-13T00:58:54.222Z,101070.63
2023-05-13T01:01:49.687Z,101079.50
2023-05-13T01:04:40.726Z,101074.75
2023-05-13T01:07:31.285Z,101080.34
2023-05-13T01:10:09.019Z,101083.47
2023-05-13T01:12:41.826Z,101079.63
2023-05-13T01:15:15.236Z,101089.44
2023-05-13T01:18:25.414Z,101086.78
2023-05-13T01:20:53.141Z,101086.72
2023-05-13T01:23:20.193Z,101083.47
2023-05-13T01:25:47.894Z,101085.59
2023-05-13T01:28:14.968Z,101081.25
2023-05-13T01:30:42.050Z,101085.25
2023-05-13T01:33:10.521Z,101085.81
2023-05-13T01:35:37.956Z,101078.56
2023-05-13T01:38:06.532Z,101080.16
2023-05-13T01:40:35.119Z,101072.91
2023-05-13T01:43:02.554Z,101083.72
2023-05-13T01:45:30.822Z,101084.69
2023-05-13T01:47:57.942Z,101078.69
2023-05-13T01:50:25.436Z,101086.19
2023-05-13T01:52:52.459Z,101084.22
2023-05-13T01:55:19.632Z,101080.59
2023-05-13T01:57:46.676Z,101080.47
2023-05-13T02:00:14.626Z,101079.69
2023-05-13T02:02:41.714Z,101083.63
2023-05-13T02:05:09.437Z,101080.66
2023-05-13T02:07:36.675Z,101095.03
2023-05-13T02:10:04.085Z,101090.47
2023-05-13T02:12:31.088Z,101083.66
2023-05-13T02:14:58.157Z,101096.44
2023-05-13T02:17:25.329Z,101090.44
2023-05-13T02:19:52.522Z,101088.78
2023-05-13T02:22:19.642Z,101098.50
2023-05-13T02:24:46.616Z,101098.19
2023-05-13T02:31:22.804Z,101103.53
2023-05-13T02:33:49.789Z,101112.09
2023-05-13T02:36:16.808Z,101111.50
2023-05-13T02:38:43.860Z,101112.53
2023-05-13T02:41:10.849Z,101114.31
2023-05-13T02:43:37.852Z,101115.66
2023-05-13T02:46:04.888Z,101105.63
2023-05-13T02:48:31.930Z,101108.38
2023-05-13T02:50:58.954Z,101093.53
2023-05-13T02:53:26.083Z,101097.03
2023-05-13T02:55:54.378Z,101101.63
2023-05-13T02:58:21.435Z,101105.69
2023-05-13T03:00:48.431Z,101103.53
2023-05-13T03:03:15.464Z,101119.09
2023-05-13T03:05:42.518Z,101122.44
2023-05-13T03:08:09.483Z,101118.56
2023-05-13T03:10:36.505Z,101113.84
2023-05-13T03:13:03.464Z,101107.50
2023-05-13T03:15:30.481Z,101113.53
2023-05-13T03:17:57.959Z,101109.41
2023-05-13T03:20:25.043Z,101115.59
2023-05-13T03:22:52.078Z,101116.69
2023-05-13T03:25:19.093Z,101106.56
2023-05-13T03:27:46.158Z,101112.47
2023-05-13T03:30:14.284Z,101101.69
2023-05-13T03:32:41.340Z,101081.41
2023-05-13T03:35:08.615Z,101081.94
2023-05-13T03:37:35.637Z,101091.19
2023-05-13T03:40:02.757Z,101093.25
2023-05-13T03:42:30.713Z,101096.78
2023-05-13T03:44:57.806Z,101098.69
2023-05-13T03:47:25.061Z,101109.09
2023-05-13T03:49:52.048Z,101106.56
2023-05-13T03:52:19.123Z,101097.97
2023-05-13T03:54:46.128Z,101111.69
2023-05-13T03:57:13.162Z,101105.75
2023-05-13T03:59:40.235Z,101113.25
2023-05-13T04:02:07.446Z,101109.94
2023-05-13T04:04:34.714Z,101112.81
2023-05-13T04:07:01.743Z,101111.09
2023-05-13T04:09:28.819Z,101117.06
2023-05-13T04:11:56.068Z,101117.19
2023-05-13T04:14:23.039Z,101106.78
2023-05-13T04:16:50.091Z,101113.44
2023-05-13T04:19:17.422Z,101115.22
2023-05-13T04:21:44.393Z,101107.41
2023-05-13T04:24:11.594Z,101118.91
2023-05-13T04:26:39.140Z,101110.97
2023-05-13T04:29:06.175Z,101106.81
2023-05-13T04:31:33.266Z,101115.47
2023-05-13T04:34:00.292Z,101120.16
2023-05-13T04:36:27.284Z,101113.16
2023-05-13T04:38:55.463Z,101122.28
2023-05-13T04:41:22.458Z,101120.16
2023-05-13T04:43:49.458Z,101114.53
2023-05-13T04:46:16.478Z,101116.63
2023-05-13T04:48:48.135Z,101114.66
2023-05-13T04:51:16.529Z,101126.69
2023-05-13T04:53:43.895Z,101134.56
2023-05-13T04:56:11.078Z,101136.28
2023-05-13T04:58:38.061Z,101144.13
2023-05-13T05:01:05.212Z,101139.06
2023-05-13T05:03:32.241Z,101152.56
2023-05-13T05:05:59.401Z,101140.78
2023-05-13T05:08:26.453Z,101151.00
2023-05-13T05:10:53.677Z,101155.22
2023-05-13T05:13:20.639Z,101146.16
2023-05-13T05:15:47.647Z,101141.97
2023-05-13T05:18:14.777Z,101128.38
2023-05-13T05:20:41.755Z,101124.41
2023-05-13T05:23:10.540Z,101120.84
2023-05-13T05:25:37.596Z,101119.69
2023-05-13T05:28:07.876Z,101119.72
2023-05-13T05:30:39.693Z,101121.59
2023-05-13T05:33:08.303Z,101109.66
2023-05-13T05:35:38.472Z,101114.03
2023-05-13T05:38:07.172Z,101106.22
2023-05-13T05:40:45.627Z,101111.59
2023-05-13T05:43:12.888Z,101104.72
2023-05-13T05:45:40.554Z,101119.50
2023-05-13T05:48:07.845Z,101120.34
2023-05-13T05:50:35.557Z,101123.97
2023-05-13T05:53:03.021Z,101136.25
2023-05-13T05:55:31.810Z,101129.22
2023-05-13T05:58:03.987Z,101124.38
2023-05-13T06:00:31.378Z,101132.47
2023-05-13T06:02:58.830Z,101133.38
2023-05-13T06:05:26.026Z,101129.00
2023-05-13T06:07:53.039Z,101122.94
2023-05-13T06:10:20.161Z,101115.28
2023-05-13T06:12:47.290Z,101121.19
2023-05-13T06:15:14.370Z,101109.97
2023-05-13T06:17:41.420Z,101114.03
2023-05-13T06:20:08.976Z,101113.34
2023-05-13T06:22:36.013Z,101114.56
2023-05-13T06:25:03.218Z,101116.63
2023-05-13T06:27:30.391Z,101121.50
2023-05-13T06:29:57.554Z,101118.47
2023-05-13T06:32:24.662Z,101117.06
2023-05-13T06:34:53.960Z,101115.94
2023-05-13T06:37:22.794Z,101120.56
2023-05-13T06:39:50.316Z,101119.56
2023-05-13T06:42:17.306Z,101119.41
2023-05-13T06:44:44.294Z,101121.25
2023-05-13T06:47:16.093Z,101123.19
2023-05-13T06:49:43.564Z,101122.44
2023-05-13T06:52:11.294Z,101117.66
2023-05-13T06:54:38.443Z,101118.88
2023-05-13T06:57:07.417Z,101120.00
2023-05-13T06:59:35.716Z,101117.16
2023-05-13T07:02:02.716Z,101111.94
2023-05-13T07:04:30.398Z,101120.44
2023-05-13T07:06:57.857Z,101107.31
2023-05-13T07:09:24.919Z,101115.03
2023-05-13T07:11:52.204Z,101110.13
2023-05-13T07:14:20.096Z,101111.75
2023-05-13T07:16:47.165Z,101115.97
2023-05-13T07:19:14.281Z,101120.19
2023-05-13T07:21:41.337Z,101109.47
2023-05-13T07:24:08.434Z,101120.88
2023-05-13T07:26:35.499Z,101106.59
2023-05-13T07:29:02.536Z,101109.28
2023-05-13T07:31:30.747Z,101115.56
2023-05-13T07:33:57.987Z,101100.78
2023-05-13T07:36:25.064Z,101102.53
2023-05-13T07:38:52.056Z,101115.22
2023-05-13T07:41:19.201Z,101104.81
2023-05-13T16:52:33.479Z,100916.00
2023-05-13T17:14:05.688Z,100930.34
2023-05-13T17:16:32.977Z,100932.13
2023-05-13T17:19:00.289Z,100941.03
2023-05-13T17:21:27.496Z,100939.25
2023-05-13T17:23:54.510Z,100931.25
2023-05-13T17:26:22.106Z,100941.91
2023-05-13T17:28:49.746Z,100946.41
2023-05-13T17:31:17.019Z,100949.06
2023-05-13T17:33:44.356Z,100944.53
2023-05-13T17:36:11.449Z,100948.16
2023-05-13T17:38:38.482Z,100967.78
2023-05-13T17:41:05.831Z,100965.97
2023-05-13T17:43:32.993Z,100965.84
2023-05-13T17:46:00.174Z,100968.50
2023-05-13T17:48:27.368Z,100973.81
2023-05-13T17:50:54.642Z,100969.31
2023-05-13T17:53:21.977Z,100967.47
2023-05-13T17:55:49.356Z,100970.22
2023-05-13T17:58:16.781Z,100960.28
2023-05-13T18:00:43.974Z,100958.56
2023-05-13T18:03:11.059Z,100962.13
2023-05-13T18:05:38.211Z,100965.72
2023-05-13T18:08:05.451Z,100963.13
2023-05-13T18:10:32.454Z,100968.41
2023-05-13T18:12:59.500Z,100961.22
2023-05-13T18:15:26.548Z,100966.63
2023-05-13T18:17:53.701Z,100966.56
2023-05-13T18:20:20.941Z,100965.63
2023-05-13T18:22:48.052Z,100966.47
2023-05-13T18:25:15.072Z,100974.47
2023-05-13T18:27:42.097Z,100974.56
2023-05-13T18:30:09.844Z,100975.38
2023-05-13T18:32:36.820Z,100981.69
2023-05-13T18:35:04.166Z,100977.16
2023-05-13T18:37:31.137Z,100971.78
2023-05-13T18:39:58.816Z,100977.97
2023-05-13T18:42:28.568Z,100976.88
2023-05-13T18:44:55.720Z,100982.19
2023-05-13T18:47:22.714Z,100975.75
2023-05-13T18:49:49.712Z,100981.94
2023-05-13T18:52:16.788Z,100978.41
2023-05-13T18:54:43.916Z,100986.31
2023-05-13T18:57:11.183Z,100991.66
2023-05-13T18:59:38.555Z,100990.66
2023-05-13T19:02:05.951Z,100994.09
2023-05-13T19:04:33.141Z,101003.03
2023-05-13T19:07:01.508Z,100993.22
2023-05-13T19:09:28.560Z,100996.66
2023-05-13T19:11:55.569Z,100985.84
2023-05-13T19:14:22.939Z,100991.03
2023-05-13T19:16:50.069Z,100982.13
2023-05-13T19:19:17.181Z,100987.47
2023-05-13T19:21:44.224Z,100990.31
2023-05-13T19:24:11.262Z,100987.47
2023-05-13T19:26:38.386Z,100988.41
2023-05-13T19:29:05.790Z,100989.94
2023-05-13T19:31:33.146Z,100991.75
2023-05-13T19:34:01.418Z,100993.41
2023-05-13T19:36:28.478Z,100997.09
2023-05-13T19:38:56.816Z,100994.47
2023-05-13T19:41:23.852Z,100983.47
2023-05-13T19:43:50.985Z,100990.56
2023-05-13T19:46:18.171Z,100987.06
2023-05-13T19:48:45.244Z,100990.47
2023-05-13T19:51:12.207Z,100992.34
2023-05-13T19:53:39.299Z,100991.34
2023-05-13T19:56:06.497Z,100995.94
2023-05-13T19:58:33.508Z,100988.53
2023-05-13T20:01:01.169Z,100991.88
2023-05-13T20:03:28.305Z,100988.09
2023-05-13T20:05:55.504Z,100987.25
2023-05-13T20:08:22.981Z,100998.72
2023-05-13T20:10:50.028Z,100989.91
2023-05-13T20:13:17.101Z,100987.16
2023-05-13T20:15:44.107Z,100988.75
2023-05-13T20:18:11.356Z,100998.50
2023-05-13T20:20:38.441Z,100992.13
2023-05-13T20:23:05.489Z,101000.78
2023-05-13T20:25:32.532Z,100995.34
2023-05-13T20:27:59.525Z,100999.56
2023-05-13T20:30:26.552Z,101004.22
2023-05-13T20:32:53.605Z,100997.09
2023-05-13T20:35:20.799Z,101006.78
2023-05-13T20:37:47.865Z,100996.81
2023-05-13T20:40:14.861Z,100995.03
2023-05-13T20:42:41.847Z,100999.41
2023-05-13T20:45:09.296Z,100992.00
2023-05-13T20:47:37.112Z,100993.75
2023-05-13T20:50:04.416Z,100997.16
2023-05-13T20:52:31.597Z,100999.03
2023-05-13T20:54:59.618Z,100990.09
2023-05-13T20:57:26.586Z,100997.88
2023-05-13T20:59:53.622Z,100988.88
2023-05-13T21:02:20.969Z,100986.28
2023-05-13T21:04:47.953Z,100988.88
2023-05-13T21:07:15.037Z,100986.94
2023-05-13T21:09:41.997Z,100981.47
2023-05-13T21:12:09.142Z,100989.50
2023-05-13T21:14:36.184Z,100995.50
2023-05-13T21:17:03.947Z,100996.38
2023-05-13T21:19:30.993Z,100993.94
2023-05-13T21:21:59.982Z,100992.50
2023-05-13T21:24:26.983Z,100987.94
2023-05-13T21:26:54.061Z,100980.88
2023-05-13T21:29:21.027Z,100987.81
2023-05-13T21:31:48.568Z,100990.31
2023-05-13T21:34:15.596Z,100980.50
2023-05-13T21:36:42.601Z,100976.97
2023-05-13T21:39:10.960Z,100974.44
2023-05-13T21:41:38.113Z,100975.44
2023-05-13T21:44:05.601Z,100974.50
2023-05-13T21:46:32.658Z,100977.09
2023-05-13T21:49:00.549Z,100973.25
2023-05-13T21:51:28.434Z,100978.56
2023-05-13T21:53:55.618Z,100978.50
2023-05-13T21:56:22.693Z,100980.06
2023-05-13T21:58:50.636Z,100973.25
2023-05-13T22:01:18.825Z,100977.47
2023-05-13T22:03:45.928Z,100976.56
2023-05-13T22:06:12.973Z,100982.31
2023-05-13T22:08:39.999Z,100972.53
2023-05-13T22:11:07.490Z,100975.09
2023-05-13T22:13:34.509Z,100973.34
2023-05-13T22:16:01.628Z,100983.78
2023-05-13T22:18:28.758Z,100974.63
2023-05-13T22:20:56.057Z,100978.38
2023-05-13T22:23:23.231Z,100979.53
2023-05-13T22:25:50.677Z,100972.09
2023-05-13T22:28:17.658Z,100971.22
2023-05-13T22:30:44.916Z,100978.03
2023-05-13T22:33:11.972Z,100967.16
2023-05-13T22:35:39.599Z,100975.41
2023-05-13T22:38:06.764Z,100976.22
2023-05-13T22:40:33.792Z,100975.97
2023-05-13T22:43:00.893Z,100964.78
2023-05-13T22:45:28.138Z,100970.03
2023-05-13T22:47:56.042Z,100969.22
2023-05-13T22:50:24.654Z,100974.63
2023-05-13T22:52:51.994Z,100976.19
2023-05-13T22:55:19.092Z,100980.56
2023-05-13T22:57:46.299Z,100972.41
2023-05-13T23:00:13.989Z,100971.56
2023-05-13T23:02:41.148Z,100968.84
2023-05-13T23:05:08.465Z,100972.06
2023-05-13T23:07:35.751Z,100975.75
2023-05-13T23:10:02.920Z,100971.72
2023-05-13T23:12:29.895Z,100980.94
2023-05-13T23:14:57.006Z,100979.19
2023-05-13T23:17:24.063Z,100969.41
2023-05-13T23:19:51.262Z,100970.84
2023-05-13T23:22:18.334Z,100977.34
2023-05-13T23:24:45.308Z,100982.16
2023-05-13T23:27:12.422Z,100974.53
2023-05-13T23:29:39.454Z,100980.44
2023-05-13T23:32:07.152Z,100984.25
2023-05-13T23:34:34.479Z,100981.97
2023-05-13T23:37:01.514Z,100985.59
2023-05-13T23:39:28.509Z,100987.50
2023-05-13T23:41:55.508Z,100977.88
2023-05-13T23:44:22.597Z,100980.00
2023-05-13T23:46:49.739Z,100980.56
2023-05-13T23:49:17.599Z,100979.25
2023-05-13T23:51:44.595Z,100987.28
2023-05-13T23:54:11.695Z,100973.81
2023-05-13T23:56:38.671Z,100977.03
2023-05-13T23:59:05.783Z,100970.94
